createdAt,value
2022-09-15T00:02:07.042Z,97334.22
2022-09-15T00:04:35.677Z,97332.44
2022-09-15T00:07:04.220Z,97331.00
2022-09-15T00:09:32.805Z,97326.34
2022-09-15T00:12:01.044Z,97330.66
2022-09-15T00:14:29.744Z,97329.22
2022-09-15T00:16:59.938Z,97329.00
2022-09-15T00:19:28.673Z,97321.94
2022-09-15T00:21:57.615Z,97328.16
2022-09-15T00:24:26.127Z,97331.41
2022-09-15T00:26:54.675Z,97326.47
2022-09-15T00:35:26.732Z,97326.06
2022-09-15T00:37:55.393Z,97322.50
2022-09-15T00:40:24.679Z,97322.72
2022-09-15T00:42:53.374Z,97322.56
2022-09-15T00:45:21.517Z,97321.16
2022-09-15T00:47:50.449Z,97326.94
2022-09-15T00:50:20.462Z,97325.47
2022-09-15T00:52:52.031Z,97322.81
2022-09-15T00:55:23.273Z,97325.72
2022-09-15T00:57:54.379Z,97327.50
2022-09-15T01:00:23.967Z,97330.00
2022-09-15T01:02:52.638Z,97322.50
2022-09-15T01:05:22.438Z,97321.25
2022-09-15T01:07:55.036Z,97318.84
2022-09-15T01:10:27.145Z,97323.31
2022-09-15T01:12:56.422Z,97318.53
2022-09-15T01:15:26.778Z,97317.84
2022-09-15T01:18:04.171Z,97323.03
2022-09-15T01:20:47.933Z,97318.34
2022-09-15T01:23:31.712Z,97312.94
2022-09-15T01:26:17.479Z,97307.75
2022-09-15T01:29:04.301Z,97314.53
2022-09-15T01:31:36.831Z,97322.63
2022-09-15T01:34:07.896Z,97316.44
2022-09-15T01:39:27.256Z,97320.38
2022-09-15T01:41:57.307Z,97315.19
2022-09-15T01:44:27.694Z,97323.50
2022-09-15T01:46:59.629Z,97319.13
2022-09-15T01:49:30.326Z,97322.25
2022-09-15T01:51:59.051Z,97315.84
2022-09-15T01:54:31.553Z,97323.81
2022-09-15T01:57:00.826Z,97322.06
2022-09-15T01:59:30.726Z,97324.72
2022-09-15T02:02:03.733Z,97321.16
2022-09-15T02:04:36.876Z,97319.13
2022-09-15T02:07:12.283Z,97315.19
2022-09-15T02:09:48.910Z,97317.34
2022-09-15T02:12:20.507Z,97323.09
2022-09-15T02:14:54.429Z,97310.41
2022-09-15T02:17:27.196Z,97312.34
2022-09-15T02:19:58.019Z,97315.81
2022-09-15T02:22:28.579Z,97315.06
2022-09-15T02:24:59.999Z,97312.69
2022-09-15T02:27:30.649Z,97313.94
2022-09-15T02:30:01.827Z,97311.88
2022-09-15T02:32:36.326Z,97319.72
2022-09-15T02:35:08.114Z,97315.63
2022-09-15T02:37:40.063Z,97319.09
2022-09-15T02:40:09.383Z,97315.63
2022-09-15T02:42:39.492Z,97312.00
2022-09-15T02:45:08.780Z,97318.88
2022-09-15T02:47:39.563Z,97316.81
2022-09-15T02:50:09.363Z,97313.22
2022-09-15T02:52:38.060Z,97311.66
2022-09-15T02:55:06.719Z,97319.94
2022-09-15T02:57:35.175Z,97318.06
2022-09-15T03:00:17.012Z,97310.88
2022-09-15T03:02:50.185Z,97316.00
2022-09-15T03:05:19.371Z,97318.66
2022-09-15T03:07:48.494Z,97313.66
2022-09-15T03:10:17.219Z,97317.66
2022-09-15T03:12:46.931Z,97318.56
2022-09-15T03:15:16.498Z,97321.38
2022-09-15T03:17:47.835Z,97313.25
2022-09-15T03:29:00.253Z,97330.00
2022-09-15T03:34:37.693Z,97326.25
2022-09-15T03:37:08.798Z,97329.09
2022-09-15T03:39:38.226Z,97325.78
2022-09-15T03:42:07.808Z,97322.97
2022-09-15T03:44:36.508Z,97323.91
2022-09-15T03:47:05.376Z,97321.69
2022-09-15T03:49:35.671Z,97316.38
2022-09-15T03:52:03.940Z,97320.66
2022-09-15T03:54:35.728Z,97318.50
2022-09-15T03:57:04.562Z,97321.16
2022-09-15T03:59:32.664Z,97311.00
2022-09-15T04:02:01.272Z,97316.75
2022-09-15T04:04:29.956Z,97320.19
2022-09-15T04:06:58.685Z,97324.88
2022-09-15T04:09:28.079Z,97317.41
2022-09-15T04:11:57.933Z,97322.72
2022-09-15T04:14:26.884Z,97328.94
2022-09-15T04:16:57.615Z,97331.28
2022-09-15T04:19:26.390Z,97330.84
2022-09-15T04:21:55.306Z,97341.84
2022-09-15T04:24:24.539Z,97333.69
2022-09-15T04:29:54.455Z,97328.09
2022-09-15T04:32:23.847Z,97324.97
2022-09-15T04:34:54.999Z,97325.59
2022-09-15T04:37:23.922Z,97325.25
2022-09-15T04:39:52.861Z,97325.09
2022-09-15T04:42:22.344Z,97335.88
2022-09-15T04:44:50.941Z,97334.59
2022-09-15T04:47:21.223Z,97331.81
2022-09-15T04:49:58.319Z,97330.56
2022-09-15T04:52:27.236Z,97335.69
2022-09-15T04:54:56.083Z,97328.38
2022-09-15T04:57:24.476Z,97330.56
2022-09-15T04:59:53.013Z,97334.78
2022-09-15T05:02:22.781Z,97330.84
2022-09-15T05:04:52.160Z,97333.09
2022-09-15T05:15:50.954Z,97335.47
2022-09-15T05:24:52.839Z,97333.28
2022-09-15T05:33:54.223Z,97345.72
2022-09-15T05:36:38.801Z,97338.56
2022-09-15T05:46:07.626Z,97335.38
2022-09-15T05:48:46.396Z,97334.13
2022-09-15T05:54:08.615Z,97336.81
2022-09-15T05:56:49.075Z,97338.66
2022-09-15T05:59:19.037Z,97340.22
2022-09-15T06:01:55.182Z,97334.25
2022-09-15T06:04:26.381Z,97340.56
2022-09-15T06:06:56.639Z,97345.53
2022-09-15T06:09:25.506Z,97350.03
2022-09-15T06:11:53.733Z,97350.06
2022-09-15T06:14:22.211Z,97344.63
2022-09-15T06:16:54.420Z,97349.91
2022-09-15T06:19:25.821Z,97352.38
2022-09-15T06:21:54.830Z,97350.84
2022-09-15T06:30:23.176Z,97352.88
2022-09-15T06:33:09.121Z,97348.81
2022-09-15T06:35:39.236Z,97348.94
2022-09-15T06:38:08.336Z,97357.38
2022-09-15T06:40:36.501Z,97361.69
2022-09-15T06:43:05.109Z,97364.81
2022-09-15T06:45:33.248Z,97363.28
2022-09-15T06:48:23.463Z,97365.16
2022-09-15T06:50:56.672Z,97370.59
2022-09-15T06:53:25.456Z,97369.38
2022-09-15T06:55:53.755Z,97370.19
2022-09-15T06:58:22.465Z,97375.47
2022-09-15T07:00:50.886Z,97373.91
2022-09-15T07:03:20.550Z,97372.94
2022-09-15T07:05:48.952Z,97388.22
2022-09-15T07:08:17.475Z,97379.59
2022-09-15T07:10:46.765Z,97382.25
2022-09-15T07:13:14.797Z,97383.81
2022-09-15T07:15:43.918Z,97389.00
2022-09-15T07:18:15.420Z,97386.00
2022-09-15T07:20:44.914Z,97394.44
2022-09-15T07:23:12.949Z,97385.47
2022-09-15T07:25:45.234Z,97388.94
2022-09-15T07:28:13.597Z,97378.91
2022-09-15T07:30:41.864Z,97377.94
2022-09-15T07:33:10.565Z,97383.72
2022-09-15T07:35:42.403Z,97378.16
2022-09-15T07:38:12.325Z,97398.91
2022-09-15T07:40:40.576Z,97386.50
2022-09-15T07:43:08.629Z,97383.63
2022-09-15T07:45:36.627Z,97393.25
2022-09-15T07:48:04.909Z,97390.22
2022-09-15T07:50:33.128Z,97397.84
2022-09-15T07:53:01.250Z,97399.00
2022-09-15T07:55:31.475Z,97394.72
2022-09-15T07:57:59.865Z,97395.50
2022-09-15T08:00:28.183Z,97405.41
2022-09-15T08:02:56.473Z,97398.72
2022-09-15T08:05:27.330Z,97395.88
2022-09-15T08:07:55.416Z,97398.63
2022-09-15T08:10:23.883Z,97395.78
2022-09-15T08:12:53.652Z,97395.94
2022-09-15T08:15:21.950Z,97401.91
2022-09-15T08:17:50.027Z,97413.19
2022-09-15T08:20:18.535Z,97403.88
2022-09-15T08:22:48.188Z,97410.22
2022-09-15T08:25:16.276Z,97410.31
2022-09-15T08:27:44.277Z,97407.13
2022-09-15T08:30:14.741Z,97403.63
2022-09-15T08:32:42.946Z,97401.88
2022-09-15T08:35:11.093Z,97405.13
2022-09-15T08:37:40.164Z,97404.94
2022-09-15T08:40:09.435Z,97405.84
2022-09-15T08:42:44.845Z,97415.16
2022-09-15T08:45:19.910Z,97418.69
2022-09-15T08:47:49.451Z,97415.72
2022-09-15T08:50:24.098Z,97402.66
2022-09-15T08:52:55.835Z,97408.03
2022-09-15T08:55:35.620Z,97410.22
2022-09-15T08:58:04.042Z,97420.38
2022-09-15T09:00:34.032Z,97410.81
2022-09-15T09:03:14.100Z,97406.94
2022-09-15T09:05:47.465Z,97424.78
2022-09-15T09:08:27.010Z,97419.09
2022-09-15T09:10:56.706Z,97422.41
2022-09-15T09:13:34.692Z,97431.03
2022-09-15T09:16:09.954Z,97431.63
2022-09-15T09:18:50.463Z,97417.22
2022-09-15T09:21:23.792Z,97421.56
2022-09-15T09:23:56.352Z,97442.91
2022-09-15T09:26:24.336Z,97425.91
2022-09-15T09:28:56.829Z,97437.41
2022-09-15T09:31:27.072Z,97435.06
2022-09-15T09:33:58.114Z,97435.31
2022-09-15T09:36:27.334Z,97428.38
2022-09-15T09:38:57.253Z,97436.19
2022-09-15T09:41:35.826Z,97433.38
2022-09-15T09:44:05.493Z,97435.38
2022-09-15T09:46:35.289Z,97434.09
2022-09-15T09:49:05.623Z,97436.75
2022-09-15T09:51:35.497Z,97439.72
2022-09-15T09:54:09.357Z,97442.03
2022-09-15T09:56:37.609Z,97443.91
2022-09-15T09:59:05.888Z,97448.81
2022-09-15T10:01:35.583Z,97439.41
2022-09-15T10:04:14.632Z,97445.63
2022-09-15T10:06:43.109Z,97446.31
2022-09-15T10:09:14.813Z,97446.38
2022-09-15T10:11:45.153Z,97451.81
2022-09-15T10:14:24.193Z,97449.88
2022-09-15T10:17:03.357Z,97457.41
2022-09-15T10:19:33.110Z,97453.75
2022-09-15T10:22:07.791Z,97461.00
2022-09-15T10:24:36.674Z,97457.84
2022-09-15T10:27:18.884Z,97458.63
2022-09-15T10:29:47.514Z,97460.69
2022-09-15T10:32:27.681Z,97466.59
2022-09-15T10:35:00.437Z,97463.72
2022-09-15T10:37:31.119Z,97459.78
2022-09-15T10:40:00.379Z,97467.84
2022-09-15T10:42:51.199Z,97458.38
2022-09-15T10:48:21.523Z,97459.25
2022-09-15T10:50:55.633Z,97460.16
2022-09-15T10:53:28.297Z,97467.81
2022-09-15T10:56:00.903Z,97469.06
2022-09-15T10:58:34.050Z,97472.03
2022-09-15T11:01:05.059Z,97483.00
2022-09-15T11:03:54.126Z,97477.34
2022-09-15T11:06:30.048Z,97476.91
2022-09-15T11:09:07.060Z,97474.63
2022-09-15T11:11:41.861Z,97478.16
2022-09-15T11:14:19.777Z,97475.78
2022-09-15T11:16:55.617Z,97488.03
2022-09-15T11:19:32.675Z,97485.63
2022-09-15T11:22:04.796Z,97487.38
2022-09-15T11:24:41.797Z,97492.63
2022-09-15T11:27:14.734Z,97487.88
2022-09-15T11:29:53.951Z,97494.38
2022-09-15T11:32:26.010Z,97495.81
2022-09-15T11:34:57.340Z,97496.97
2022-09-15T11:37:31.701Z,97501.78
2022-09-15T11:40:04.414Z,97500.88
2022-09-15T11:42:36.684Z,97502.25
2022-09-15T11:45:05.461Z,97506.50
2022-09-15T11:47:37.982Z,97498.00
2022-09-15T11:50:13.697Z,97501.50
2022-09-15T11:55:32.776Z,97498.09
2022-09-15T11:58:09.038Z,97495.28
2022-09-15T12:00:40.577Z,97495.06
2022-09-15T12:03:18.104Z,97497.19
2022-09-15T12:05:54.152Z,97496.44
2022-09-15T12:08:29.398Z,97494.34
2022-09-15T12:11:01.283Z,97497.31
2022-09-15T12:13:30.633Z,97491.50
2022-09-15T12:15:59.845Z,97492.72
2022-09-15T12:18:41.771Z,97500.34
2022-09-15T12:21:17.036Z,97492.19
2022-09-15T12:23:47.083Z,97501.41
2022-09-15T12:26:19.280Z,97498.91
2022-09-15T12:28:56.114Z,97494.69
2022-09-15T12:31:29.405Z,97502.84
2022-09-15T12:33:58.841Z,97494.94
2022-09-15T12:36:48.496Z,97496.41
2022-09-15T12:39:31.952Z,97493.56
2022-09-15T12:42:09.656Z,97494.81
2022-09-15T12:44:39.337Z,97494.31
2022-09-15T12:47:09.467Z,97499.59
2022-09-15T12:49:43.721Z,97500.53
2022-09-15T12:52:12.852Z,97503.66
2022-09-15T12:54:43.568Z,97497.16
2022-09-15T12:57:20.692Z,97497.06
2022-09-15T12:59:49.078Z,97503.28
2022-09-15T13:02:32.854Z,97493.13
2022-09-15T13:05:01.291Z,97498.78
2022-09-15T13:07:35.878Z,97499.13
2022-09-15T13:10:27.269Z,97501.25
2022-09-15T13:13:05.698Z,97513.63
2022-09-15T13:15:35.256Z,97510.34
2022-09-15T13:18:07.232Z,97513.41
2022-09-15T13:20:38.235Z,97517.38
2022-09-15T13:23:10.009Z,97508.97
2022-09-15T13:25:42.373Z,97504.75
2022-09-15T13:28:13.180Z,97514.13
2022-09-15T13:30:46.282Z,97522.38
2022-09-15T13:33:25.252Z,97529.97
2022-09-15T13:36:00.478Z,97521.97
2022-09-15T13:38:41.069Z,97532.50
2022-09-15T13:41:40.367Z,97525.75
2022-09-15T13:44:29.232Z,97530.19
2022-09-15T13:47:16.673Z,97533.28
2022-09-15T13:49:48.637Z,97527.84
2022-09-15T13:52:25.673Z,97534.81
2022-09-15T13:55:19.718Z,97534.25
2022-09-15T14:00:45.629Z,97528.88
2022-09-15T14:03:18.451Z,97530.00
2022-09-15T14:05:47.027Z,97535.19
2022-09-15T14:08:17.273Z,97534.75
2022-09-15T14:10:48.113Z,97536.81
2022-09-15T14:13:17.637Z,97535.72
2022-09-15T14:15:59.219Z,97542.66
2022-09-15T14:18:29.215Z,97554.06
2022-09-15T14:21:02.566Z,97551.09
2022-09-15T14:23:30.902Z,97546.97
2022-09-15T14:26:00.585Z,97545.19
2022-09-15T14:28:31.628Z,97546.19
2022-09-15T14:31:01.344Z,97549.44
2022-09-15T14:33:37.977Z,97544.03
2022-09-15T14:36:16.442Z,97548.31
2022-09-15T14:38:44.746Z,97556.06
2022-09-15T14:41:20.072Z,97552.22
2022-09-15T14:43:48.793Z,97561.78
2022-09-15T14:46:19.393Z,97563.16
2022-09-15T14:48:49.526Z,97563.09
2022-09-15T14:51:21.242Z,97569.47
2022-09-15T14:53:51.255Z,97565.28
2022-09-15T14:56:20.712Z,97560.28
2022-09-15T14:58:52.681Z,97574.19
2022-09-15T15:01:24.694Z,97576.16
2022-09-15T15:03:58.117Z,97575.75
2022-09-15T15:06:30.838Z,97562.66
2022-09-15T15:09:03.142Z,97574.31
2022-09-15T15:11:32.913Z,97563.72
2022-09-15T15:14:01.723Z,97570.25
2022-09-15T15:16:31.515Z,97567.16
2022-09-15T15:19:01.914Z,97538.34
2022-09-15T15:21:48.937Z,97555.38
2022-09-15T15:24:19.011Z,97564.84
2022-09-15T15:26:47.841Z,97561.94
2022-09-15T15:29:35.143Z,97556.66
2022-09-15T15:32:05.710Z,97556.03
2022-09-15T15:34:35.586Z,97551.41
2022-09-15T15:37:05.056Z,97551.13
2022-09-15T15:39:33.438Z,97549.34
2022-09-15T15:42:03.574Z,97543.28
2022-09-15T15:44:32.961Z,97553.19
2022-09-15T15:47:02.950Z,97531.50
2022-09-15T15:49:32.757Z,97539.56
2022-09-15T15:52:02.931Z,97535.44
2022-09-15T15:54:31.475Z,97541.84
2022-09-15T15:57:05.971Z,97539.56
2022-09-15T15:59:33.964Z,97536.28
2022-09-15T16:02:02.466Z,97539.88
2022-09-15T16:04:30.596Z,97534.81
2022-09-15T16:06:59.072Z,97534.16
2022-09-15T16:09:29.432Z,97531.22
2022-09-15T16:14:30.718Z,97536.41
2022-09-15T16:16:59.216Z,97527.56
2022-09-15T16:19:27.710Z,97526.84
2022-09-15T16:21:56.427Z,97537.66
2022-09-15T16:24:25.080Z,97533.47
2022-09-15T16:26:54.793Z,97535.53
2022-09-15T16:29:28.013Z,97539.50
2022-09-15T16:31:57.190Z,97537.28
2022-09-15T16:34:25.388Z,97546.81
2022-09-15T16:36:53.746Z,97540.38
2022-09-15T16:39:22.167Z,97539.78
2022-09-15T16:41:50.528Z,97547.38
2022-09-15T16:44:22.106Z,97544.88
2022-09-15T16:46:51.260Z,97543.94
2022-09-15T16:49:19.465Z,97541.47
2022-09-15T16:51:47.760Z,97542.72
2022-09-15T16:54:18.072Z,97544.28
2022-09-15T16:56:46.865Z,97541.31
2022-09-15T16:59:15.425Z,97543.53
2022-09-15T17:01:45.392Z,97546.94
2022-09-15T17:04:17.695Z,97544.44
2022-09-15T17:06:46.075Z,97544.75
2022-09-15T17:09:15.908Z,97548.19
2022-09-15T17:11:44.616Z,97552.38
2022-09-15T17:14:18.725Z,97556.59
2022-09-15T17:16:52.908Z,97554.53
2022-09-15T17:19:21.240Z,97548.25
2022-09-15T17:21:50.364Z,97541.09
2022-09-15T17:24:18.648Z,97550.22
2022-09-15T17:26:46.935Z,97553.03
2022-09-15T17:29:15.063Z,97550.22
2022-09-15T17:31:43.747Z,97546.03
2022-09-15T17:34:21.029Z,97553.09
2022-09-15T17:37:02.674Z,97544.50
2022-09-15T17:39:47.907Z,97547.47
2022-09-15T17:42:34.765Z,97537.28
2022-09-15T17:45:07.027Z,97532.78
2022-09-15T17:47:38.427Z,97541.69
2022-09-15T17:50:08.474Z,97542.94
2022-09-15T17:52:38.873Z,97549.66
2022-09-15T17:55:12.900Z,97538.41
2022-09-15T17:57:41.170Z,97533.72
2022-09-15T18:00:10.608Z,97531.69
2022-09-15T18:02:39.391Z,97532.75
2022-09-15T18:05:17.428Z,97528.88
2022-09-15T18:07:46.990Z,97529.00
2022-09-15T18:10:15.570Z,97529.63
2022-09-15T18:12:46.889Z,97527.13
2022-09-15T18:15:19.016Z,97527.44
2022-09-15T18:17:48.940Z,97527.91
2022-09-15T18:20:20.139Z,97533.22
2022-09-15T18:22:49.150Z,97530.41
2022-09-15T18:25:19.045Z,97527.44
2022-09-15T18:27:49.484Z,97531.66
2022-09-15T18:30:18.223Z,97525.88
2022-09-15T18:32:46.364Z,97527.88
2022-09-15T18:35:18.376Z,97528.81
2022-09-15T18:37:49.267Z,97523.66
2022-09-15T18:40:18.338Z,97523.50
2022-09-15T18:42:47.237Z,97526.75
2022-09-15T18:45:16.456Z,97519.25
2022-09-15T18:47:44.695Z,97523.47
2022-09-15T18:50:13.629Z,97525.34
2022-09-15T18:52:42.311Z,97521.28
2022-09-15T18:55:15.632Z,97518.63
2022-09-15T18:57:45.069Z,97523.44
2022-09-15T19:00:14.750Z,97515.19
2022-09-15T19:02:53.366Z,97524.25
2022-09-15T19:05:21.751Z,97520.34
2022-09-15T19:07:50.144Z,97523.16
2022-09-15T19:10:19.968Z,97520.50
2022-09-15T19:12:48.797Z,97518.47
2022-09-15T19:15:17.143Z,97524.69
2022-09-15T19:17:45.738Z,97524.22
2022-09-15T19:20:15.142Z,97516.88
2022-09-15T19:22:43.631Z,97519.53
2022-09-15T19:25:12.590Z,97517.94
2022-09-15T19:27:43.216Z,97520.00
2022-09-15T19:30:12.170Z,97515.47
2022-09-15T19:32:40.962Z,97514.22
2022-09-15T19:35:09.780Z,97515.00
2022-09-15T19:37:39.314Z,97514.69
2022-09-15T19:40:10.166Z,97514.69
2022-09-15T19:42:38.801Z,97514.22
2022-09-15T19:45:10.660Z,97509.69
2022-09-15T19:47:38.844Z,97506.25
2022-09-15T19:50:08.128Z,97513.44
2022-09-15T19:52:36.525Z,97504.41
2022-09-15T19:55:05.377Z,97509.69
2022-09-15T19:57:33.563Z,97509.06
2022-09-15T20:00:02.148Z,97515.47
2022-09-15T20:02:33.407Z,97513.28
2022-09-15T20:05:01.978Z,97514.84
2022-09-15T20:07:32.328Z,97508.78
2022-09-15T20:10:03.143Z,97511.09
2022-09-15T20:12:32.138Z,97510.19
2022-09-15T20:15:00.398Z,97516.91
2022-09-15T20:17:28.661Z,97515.84
2022-09-15T20:19:58.686Z,97519.28
2022-09-15T20:22:29.149Z,97514.63
2022-09-15T20:24:57.601Z,97516.81
2022-09-15T20:27:25.915Z,97517.63
2022-09-15T20:29:54.090Z,97507.78
2022-09-15T20:32:29.572Z,97511.66
2022-09-15T20:35:06.066Z,97513.09
2022-09-15T20:58:29.861Z,97505.25
2022-09-15T21:01:11.857Z,97496.34
2022-09-15T21:09:27.299Z,97498.22
2022-09-15T21:12:01.450Z,97500.41
2022-09-15T21:21:02.317Z,97491.00
2022-09-15T21:23:37.480Z,97495.56
2022-09-15T21:40:59.065Z,97486.94
2022-09-15T21:43:36.461Z,97480.34
2022-09-15T21:46:21.481Z,97488.91
2022-09-15T22:25:06.380Z,97462.16
2022-09-15T22:33:51.073Z,97459.50
2022-09-15T22:36:29.750Z,97457.13
2022-09-15T22:39:12.266Z,97457.75
2022-09-15T22:48:24.654Z,97453.19
2022-09-15T22:56:47.422Z,97446.66
2022-09-15T22:59:17.254Z,97458.81
2022-09-15T23:01:46.328Z,97461.47
2022-09-15T23:04:16.503Z,97457.25
2022-09-15T23:06:45.774Z,97460.19
2022-09-15T23:09:16.346Z,97460.50
2022-09-15T23:11:55.440Z,97455.50
2022-09-15T23:14:29.689Z,97453.16
2022-09-15T23:17:09.236Z,97450.84
2022-09-15T23:19:45.355Z,97452.69
2022-09-15T23:22:15.809Z,97454.25
2022-09-15T23:24:49.017Z,97442.56
2022-09-15T23:27:22.909Z,97444.88
2022-09-15T23:29:57.721Z,97440.38
2022-09-15T23:32:44.631Z,97441.47
2022-09-15T23:38:14.161Z,97438.81
2022-09-15T23:40:46.702Z,97440.88
2022-09-15T23:55:57.727Z,97430.81
2022-09-15T23:58:52.037Z,97436.06
